EDT,Max TemperatureF,Mean TemperatureF,Min TemperatureF,Max Dew PointF,MeanDew PointF,Min DewpointF,Max Humidity, Mean Humidity, Min Humidity, Max Sea Level PressureIn, Mean Sea Level PressureIn, Min Sea Level PressureIn, Max VisibilityMiles, Mean VisibilityMiles, Min VisibilityMiles, Max Wind SpeedMPH, Mean Wind SpeedMPH, Max Gust SpeedMPH,PrecipitationIn, CloudCover, Events, WindDirDegrees
2013-9-1,82,76,69,70,68,66,94,83,61,29.89,29.85,29.82,10,9,7,7,2,,0.00,4,,235
2013-9-2,86,76,65,69,66,61,100,85,45,29.83,29.81,29.75,10,8,2,10,3,17,0.00,4,Rain-Thunderstorm,241
2013-9-3,71,66,60,65,58,52,97,79,50,30.02,29.91,29.81,10,9,4,14,4,20,0.00,5,,296
2013-9-4,78,66,53,57,54,50,100,76,36,30.11,30.05,30.01,10,10,10,14,7,17,0.00,2,,254
2013-9-5,75,66,57,57,49,37,82,60,25,30.22,30.10,30.03,10,10,10,14,7,17,0.00,3,,272
2013-9-6,69,56,44,45,41,28,93,64,21,30.32,30.23,30.16,10,10,10,9,3,,0.00,0,,7
2013-9-7,78,61,44,55,45,39,93,64,26,30.16,30.07,29.97,10,10,10,12,2,,0.00,2,Rain,253
2013-9-8,77,67,56,61,54,47,82,69,44,30.13,29.99,29.92,10,10,7,9,4,16,0.00,5,,34
2013-9-9,71,58,46,57,49,44,94,73,41,30.23,30.16,30.13,10,10,10,12,3,18,0.00,2,Rain,213
2013-9-10,91,76,60,70,63,57,94,76,46,30.17,30.13,30.08,10,9,5,15,5,20,0.00,0,,238
2013-9-11,87,78,69,72,70,66,100,88,55,30.17,30.12,30.05,7,5,1,12,4,,0.00,1,Rain-Thunderstorm,232
2013-9-12,82,74,65,72,66,56,100,89,62,30.03,29.91,29.79,10,4,0,21,3,30,0.00,7,Fog-Rain-Thunderstorm,273
2013-9-13,68,60,52,58,51,41,95,72,43,29.99,29.86,29.78,10,10,10,14,5,22,0.00,4,Rain,313
2013-9-14,66,56,47,45,43,39,87,70,37,30.16,30.07,29.99,10,10,10,12,5,,0.00,5,,306
2013-9-15,71,56,41,53,46,41,100,76,38,30.23,30.15,30.09,10,10,10,8,1,,0.00,1,,229
2013-9-16,69,60,52,56,51,44,100,76,46,30.32,30.16,30.08,10,10,7,12,3,17,0.06,5,Rain,356
2013-9-17,66,52,37,44,37,28,93,67,26,30.46,30.37,30.31,10,10,10,9,5,,0.00,1,,56
2013-9-18,71,55,39,44,40,37,100,69,29,30.34,30.27,30.18,10,10,10,9,2,,0.00,0,,232
2013-9-19,73,58,44,58,49,42,95,78,50,30.19,30.15,30.08,10,10,7,12,1,,0.00,1,,242
2013-9-20,78,64,50,61,56,50,100,82,44,30.10,30.04,29.93,10,6,0,12,1,,0.00,4,Fog,200
2013-9-21,67,62,56,63,60,56,100,88,74,29.93,29.80,29.67,10,8,2,14,6,18,0.00,7,Rain,208
2013-9-22,60,56,52,56,47,39,97,74,51,30.01,29.87,29.76,10,10,10,12,4,18,0.00,7,,313
2013-9-23,62,54,45,43,40,36,88,63,42,30.12,30.07,30.00,10,10,10,10,6,17,0.00,5,,345
2013-9-24,71,55,39,46,42,36,100,75,27,30.14,30.07,29.97,10,10,7,5,0,,0.00,1,,9
2013-9-25,69,55,41,50,44,34,100,80,27,30.02,29.99,29.92,10,8,0,6,1,,0.00,1,Fog,299
2013-9-26,71,56,41,51,47,41,100,81,33,30.12,30.04,29.99,10,9,0,12,1,,0.00,3,Fog,53
2013-9-27,71,62,52,52,50,48,90,76,43,30.25,30.19,30.12,10,10,7,9,4,,0.00,6,,36
2013-9-28,66,56,46,54,49,45,100,85,49,30.34,30.27,30.23,10,8,0,6,1,,0.00,4,Fog,270
2013-9-29,69,56,43,54,47,43,100,82,43,30.23,30.16,30.07,10,7,0,7,1,,0.00,4,Fog,220
2013-9-30,75,60,46,56,49,45,100,80,38,30.10,30.06,29.99,10,10,10,6,1,,0.00,4,,224